ホニアラ の空港の天気 - METARとTAF

ホニアラ国際空港 ( AGGH / HIR ) - ソロモン諸島 ガダルカナル島ホニアラ
飛行場実況気象(Metar)
観測時間08/05 12:00 SBT (08/05 01:00 UTC)
風向・風速東 4m/s
視程10km以上
天気現象
少しの雲 雲底高度 610m
気温33℃
湿度63%
気圧1009hPa
METARAGGH 050100Z 09008KT 9999 FEW020 33/25 Q1009
過去の天気等 Google飛行場航空写真 Wunderground天気予報

過去48時間のMETAR

飛行場予報(TAF)
発表時間: 8/05 10:10 SBT (8/04 23:10 UTC)
予報対象時間: 5日11時 SBT ~ 6日11時 SBT
風向・風速東北東 8m/s
視程10km以上
全天の4割程度の雲 雲底高度 580m
TAF AGGH 042310Z 0500/0524 07015KT 9999 SCT019 T 31 32 30 28 Q 1010 1008 1007 1009